sensor_id;sensor_type;location;lat;lon;timestamp;pressure;altitude;pressure_sealevel;temperature;humidity
23166;BME280;11751;42.700;24.170;2023-02-13T00:00:23;95584.31;;;-0.27;nan
23166;BME280;11751;42.700;24.170;2023-02-13T00:02:49;95591.81;;;-0.27;nan
23166;BME280;11751;42.700;24.170;2023-02-13T00:05:15;95588.75;;;-0.29;nan
23166;BME280;11751;42.700;24.170;2023-02-13T00:07:41;95594.53;;;-0.36;nan
23166;BME280;11751;42.700;24.170;2023-02-13T00:10:07;95592.66;;;-0.39;nan
23166;BME280;11751;42.700;24.170;2023-02-13T00:12:33;95593.13;;;-0.41;nan
23166;BME280;11751;42.700;24.170;2023-02-13T00:14:59;95584.41;;;-0.39;nan
23166;BME280;11751;42.700;24.170;2023-02-13T00:17:25;95597.97;;;-0.45;nan
23166;BME280;11751;42.700;24.170;2023-02-13T00:19:50;95603.84;;;-0.64;nan
23166;BME280;11751;42.700;24.170;2023-02-13T00:22:16;95605.28;;;-0.51;nan
23166;BME280;11751;42.700;24.170;2023-02-13T00:24:42;95609.50;;;-0.59;nan
23166;BME280;11751;42.700;24.170;2023-02-13T00:27:07;95603.88;;;-0.77;nan
23166;BME280;11751;42.700;24.170;2023-02-13T00:29:33;95607.47;;;-0.67;nan
23166;BME280;11751;42.700;24.170;2023-02-13T00:31:58;95602.09;;;-0.71;nan
23166;BME280;11751;42.700;24.170;2023-02-13T00:34:25;95611.38;;;-0.77;nan
23166;BME280;11751;42.700;24.170;2023-02-13T00:36:51;95604.91;;;-0.83;nan
23166;BME280;11751;42.700;24.170;2023-02-13T00:39:16;95609.50;;;-0.80;nan
23166;BME280;11751;42.700;24.170;2023-02-13T00:41:41;95611.94;;;-0.82;nan
23166;BME280;11751;42.700;24.170;2023-02-13T00:44:08;95611.31;;;-0.86;nan
23166;BME280;11751;42.700;24.170;2023-02-13T00:46:33;95612.78;;;-0.94;nan
23166;BME280;11751;42.700;24.170;2023-02-13T00:48:59;95608.09;;;-1.06;nan
23166;BME280;11751;42.700;24.170;2023-02-13T00:51:24;95612.06;;;-1.07;nan
23166;BME280;11751;42.700;24.170;2023-02-13T00:53:50;95612.63;;;-1.12;nan
23166;BME280;11751;42.700;24.170;2023-02-13T00:56:15;95613.09;;;-0.92;nan
23166;BME280;11751;42.700;24.170;2023-02-13T00:58:40;95613.34;;;-0.99;nan
23166;BME280;11751;42.700;24.170;2023-02-13T01:01:06;95610.66;;;-1.11;nan
23166;BME280;11751;42.700;24.170;2023-02-13T01:03:31;95604.75;;;-1.01;nan
23166;BME280;11751;42.700;24.170;2023-02-13T01:05:57;95601.31;;;-1.14;nan
23166;BME280;11751;42.700;24.170;2023-02-13T01:08:23;95605.41;;;-1.18;nan
23166;BME280;11751;42.700;24.170;2023-02-13T01:10:49;95603.66;;;-1.25;nan
23166;BME280;11751;42.700;24.170;2023-02-13T01:13:16;95612.03;;;-1.28;nan
23166;BME280;11751;42.700;24.170;2023-02-13T01:15:42;95602.81;;;-1.34;nan
23166;BME280;11751;42.700;24.170;2023-02-13T01:18:09;95607.22;;;-1.37;nan
23166;BME280;11751;42.700;24.170;2023-02-13T01:20:36;95620.81;;;-1.33;nan
23166;BME280;11751;42.700;24.170;2023-02-13T01:23:02;95618.28;;;-1.28;nan
23166;BME280;11751;42.700;24.170;2023-02-13T01:25:27;95619.28;;;-1.34;nan
23166;BME280;11751;42.700;24.170;2023-02-13T01:27:53;95612.63;;;-1.46;nan
23166;BME280;11751;42.700;24.170;2023-02-13T01:30:19;95604.94;;;-1.51;nan
23166;BME280;11751;42.700;24.170;2023-02-13T01:32:45;95613.16;;;-1.51;nan
23166;BME280;11751;42.700;24.170;2023-02-13T01:35:12;95621.41;;;-1.51;nan
23166;BME280;11751;42.700;24.170;2023-02-13T01:37:38;95611.00;;;-1.56;nan
23166;BME280;11751;42.700;24.170;2023-02-13T01:40:06;95617.47;;;-1.50;nan
23166;BME280;11751;42.700;24.170;2023-02-13T01:42:33;95605.84;;;-1.54;nan
23166;BME280;11751;42.700;24.170;2023-02-13T01:45:01;95621.66;;;-1.58;nan
23166;BME280;11751;42.700;24.170;2023-02-13T01:48:22;95618.44;;;-1.56;nan
23166;BME280;11751;42.700;24.170;2023-02-13T01:50:35;95622.78;;;-1.68;nan
23166;BME280;11751;42.700;24.170;2023-02-13T01:53:06;95624.06;;;-1.60;nan
23166;BME280;11751;42.700;24.170;2023-02-13T01:55:35;95617.03;;;-1.61;nan
23166;BME280;11751;42.700;24.170;2023-02-13T01:58:11;95614.28;;;-1.61;nan
23166;BME280;11751;42.700;24.170;2023-02-13T02:00:38;95611.00;;;-1.56;nan
23166;BME280;11751;42.700;24.170;2023-02-13T02:03:10;95619.47;;;-1.63;nan
23166;BME280;11751;42.700;24.170;2023-02-13T02:05:37;95621.34;;;-1.72;nan
23166;BME280;11751;42.700;24.170;2023-02-13T02:08:05;95620.59;;;-1.72;nan
23166;BME280;11751;42.700;24.170;2023-02-13T02:10:33;95609.94;;;-1.83;nan
23166;BME280;11751;42.700;24.170;2023-02-13T02:13:16;95623.34;;;-1.85;nan
23166;BME280;11751;42.700;24.170;2023-02-13T02:15:43;95615.09;;;-1.85;nan
23166;BME280;11751;42.700;24.170;2023-02-13T02:26:31;95620.28;;;-1.87;nan
23166;BME280;11751;42.700;24.170;2023-02-13T02:38:00;95632.22;;;-2.18;nan
23166;BME280;11751;42.700;24.170;2023-02-13T02:49:30;95637.25;;;-2.29;nan
23166;BME280;11751;42.700;24.170;2023-02-13T02:54:29;95642.09;;;-2.33;nan
23166;BME280;11751;42.700;24.170;2023-02-13T02:57:20;95635.28;;;-2.41;nan
23166;BME280;11751;42.700;24.170;2023-02-13T02:59:48;95642.00;;;-2.42;nan
23166;BME280;11751;42.700;24.170;2023-02-13T03:02:35;95636.06;;;-2.41;nan
23166;BME280;11751;42.700;24.170;2023-02-13T03:05:28;95636.84;;;-2.40;nan
23166;BME280;11751;42.700;24.170;2023-02-13T03:08:13;95639.44;;;-2.49;nan
23166;BME280;11751;42.700;24.170;2023-02-13T03:10:40;95634.63;;;-2.45;nan
23166;BME280;11751;42.700;24.170;2023-02-13T03:13:42;95638.44;;;-2.55;nan
23166;BME280;11751;42.700;24.170;2023-02-13T03:16:18;95643.59;;;-2.57;nan
23166;BME280;11751;42.700;24.170;2023-02-13T03:19:03;95643.34;;;-2.62;nan
23166;BME280;11751;42.700;24.170;2023-02-13T03:21:56;95646.88;;;-2.62;nan
23166;BME280;11751;42.700;24.170;2023-02-13T03:30:37;95643.31;;;-2.75;nan
23166;BME280;11751;42.700;24.170;2023-02-13T03:38:55;95652.19;;;-3.12;nan
23166;BME280;11751;42.700;24.170;2023-02-13T03:41:27;95657.94;;;-3.22;nan
23166;BME280;11751;42.700;24.170;2023-02-13T03:46:29;95655.94;;;-3.06;nan
23166;BME280;11751;42.700;24.170;2023-02-13T03:48:56;95657.97;;;-2.94;nan
23166;BME280;11751;42.700;24.170;2023-02-13T03:51:50;95653.22;;;-2.93;nan
23166;BME280;11751;42.700;24.170;2023-02-13T03:54:25;95668.91;;;-2.94;nan
23166;BME280;11751;42.700;24.170;2023-02-13T03:57:14;95657.19;;;-2.94;nan
23166;BME280;11751;42.700;24.170;2023-02-13T04:00:01;95662.94;;;-3.05;nan
23166;BME280;11751;42.700;24.170;2023-02-13T04:02:32;95663.16;;;-3.12;nan
23166;BME280;11751;42.700;24.170;2023-02-13T04:05:04;95680.06;;;-3.01;nan
23166;BME280;11751;42.700;24.170;2023-02-13T04:07:33;95669.88;;;-3.00;nan
23166;BME280;11751;42.700;24.170;2023-02-13T04:10:05;95664.16;;;-3.06;nan
23166;BME280;11751;42.700;24.170;2023-02-13T04:12:41;95679.97;;;-2.97;nan
23166;BME280;11751;42.700;24.170;2023-02-13T04:15:21;95676.78;;;-2.96;nan
23166;BME280;11751;42.700;24.170;2023-02-13T04:18:12;95671.31;;;-2.96;nan
23166;BME280;11751;42.700;24.170;2023-02-13T04:20:39;95662.28;;;-3.09;nan
23166;BME280;11751;42.700;24.170;2023-02-13T04:23:07;95673.00;;;-3.14;nan
23166;BME280;11751;42.700;24.170;2023-02-13T04:25:34;95671.88;;;-3.17;nan
23166;BME280;11751;42.700;24.170;2023-02-13T04:27:59;95664.78;;;-3.14;nan
23166;BME280;11751;42.700;24.170;2023-02-13T04:30:25;95679.38;;;-3.05;nan
23166;BME280;11751;42.700;24.170;2023-02-13T04:32:50;95680.06;;;-3.01;nan
23166;BME280;11751;42.700;24.170;2023-02-13T04:35:17;95671.75;;;-2.97;nan
23166;BME280;11751;42.700;24.170;2023-02-13T04:37:43;95671.22;;;-2.92;nan
23166;BME280;11751;42.700;24.170;2023-02-13T04:40:08;95681.06;;;-2.95;nan
23166;BME280;11751;42.700;24.170;2023-02-13T04:42:34;95679.28;;;-3.01;nan
23166;BME280;11751;42.700;24.170;2023-02-13T04:44:59;95677.19;;;-3.10;nan
23166;BME280;11751;42.700;24.170;2023-02-13T04:47:25;95666.41;;;-3.17;nan
23166;BME280;11751;42.700;24.170;2023-02-13T04:49:50;95679.25;;;-3.14;nan
23166;BME280;11751;42.700;24.170;2023-02-13T04:52:16;95670.53;;;-3.25;nan
23166;BME280;11751;42.700;24.170;2023-02-13T04:54:42;95679.53;;;-3.24;nan
23166;BME280;11751;42.700;24.170;2023-02-13T04:57:07;95692.25;;;-3.18;nan
23166;BME280;11751;42.700;24.170;2023-02-13T04:59:32;95683.22;;;-3.31;nan
23166;BME280;11751;42.700;24.170;2023-02-13T05:01:58;95684.16;;;-3.37;nan
23166;BME280;11751;42.700;24.170;2023-02-13T05:04:24;95682.34;;;-3.28;nan
23166;BME280;11751;42.700;24.170;2023-02-13T05:06:50;95686.09;;;-3.22;nan
23166;BME280;11751;42.700;24.170;2023-02-13T05:09:15;95694.66;;;-3.20;nan
23166;BME280;11751;42.700;24.170;2023-02-13T05:11:40;95695.72;;;-3.30;nan
23166;BME280;11751;42.700;24.170;2023-02-13T05:14:06;95693.63;;;-3.26;nan
23166;BME280;11751;42.700;24.170;2023-02-13T05:16:32;95694.50;;;-3.29;nan
23166;BME280;11751;42.700;24.170;2023-02-13T05:18:57;95695.72;;;-3.30;nan
23166;BME280;11751;42.700;24.170;2023-02-13T05:21:23;95704.09;;;-3.21;nan
23166;BME280;11751;42.700;24.170;2023-02-13T05:24:06;95709.50;;;-3.33;nan
23166;BME280;11751;42.700;24.170;2023-02-13T05:26:32;95709.25;;;-3.38;nan
23166;BME280;11751;42.700;24.170;2023-02-13T05:28:57;95702.88;;;-3.36;nan
23166;BME280;11751;42.700;24.170;2023-02-13T05:31:41;95700.41;;;-3.30;nan
23166;BME280;11751;42.700;24.170;2023-02-13T05:34:06;95712.91;;;-3.29;nan
23166;BME280;11751;42.700;24.170;2023-02-13T05:36:32;95696.47;;;-3.29;nan
23166;BME280;11751;42.700;24.170;2023-02-13T05:38:57;95711.88;;;-3.19;nan
23166;BME280;11751;42.700;24.170;2023-02-13T05:41:22;95711.97;;;-3.23;nan
23166;BME280;11751;42.700;24.170;2023-02-13T05:43:48;95709.72;;;-3.12;nan
23166;BME280;11751;42.700;24.170;2023-02-13T05:46:13;95717.09;;;-3.09;nan
23166;BME280;11751;42.700;24.170;2023-02-13T05:48:39;95732.28;;;-2.92;nan
23166;BME280;11751;42.700;24.170;2023-02-13T05:51:04;95731.59;;;-2.80;nan
23166;BME280;11751;42.700;24.170;2023-02-13T05:53:30;95719.88;;;-2.68;nan
23166;BME280;11751;42.700;24.170;2023-02-13T05:55:59;95722.00;;;-2.59;nan
23166;BME280;11751;42.700;24.170;2023-02-13T05:58:24;95729.38;;;-2.56;nan
23166;BME280;11751;42.700;24.170;2023-02-13T06:00:50;95717.44;;;-2.50;nan
23166;BME280;11751;42.700;24.170;2023-02-13T06:03:15;95719.19;;;-2.44;nan
23166;BME280;11751;42.700;24.170;2023-02-13T06:05:41;95731.69;;;-2.55;nan
23166;BME280;11751;42.700;24.170;2023-02-13T06:08:06;95732.50;;;-2.42;nan
23166;BME280;11751;42.700;24.170;2023-02-13T06:10:32;95723.44;;;-2.27;nan
23166;BME280;11751;42.700;24.170;2023-02-13T06:12:57;95731.78;;;-2.18;nan
23166;BME280;11751;42.700;24.170;2023-02-13T06:15:22;95738.09;;;-1.92;nan
23166;BME280;11751;42.700;24.170;2023-02-13T06:17:48;95740.72;;;-1.76;nan
23166;BME280;11751;42.700;24.170;2023-02-13T06:20:13;95739.63;;;-1.67;nan
23166;BME280;11751;42.700;24.170;2023-02-13T06:22:39;95744.59;;;-1.62;nan
23166;BME280;11751;42.700;24.170;2023-02-13T06:25:04;95747.22;;;-1.46;nan
23166;BME280;11751;42.700;24.170;2023-02-13T06:27:30;95745.03;;;-1.38;nan
23166;BME280;11751;42.700;24.170;2023-02-13T06:29:56;95753.91;;;-1.22;nan
23166;BME280;11751;42.700;24.170;2023-02-13T06:32:21;95751.81;;;-1.18;nan
23166;BME280;11751;42.700;24.170;2023-02-13T06:34:46;95749.03;;;-1.05;nan
23166;BME280;11751;42.700;24.170;2023-02-13T06:37:12;95749.13;;;-0.96;nan
23166;BME280;11751;42.700;24.170;2023-02-13T06:39:37;95748.13;;;-0.90;nan
23166;BME280;11751;42.700;24.170;2023-02-13T06:42:03;95731.00;;;-0.94;nan
23166;BME280;11751;42.700;24.170;2023-02-13T06:44:28;95740.69;;;-0.68;nan
23166;BME280;11751;42.700;24.170;2023-02-13T06:46:53;95751.72;;;-0.68;nan
23166;BME280;11751;42.700;24.170;2023-02-13T06:49:19;95743.44;;;-0.68;nan
23166;BME280;11751;42.700;24.170;2023-02-13T06:51:44;95735.53;;;-0.66;nan
23166;BME280;11751;42.700;24.170;2023-02-13T06:54:09;95741.84;;;-0.44;nan
23166;BME280;11751;42.700;24.170;2023-02-13T06:56:35;95749.63;;;-0.43;nan
23166;BME280;11751;42.700;24.170;2023-02-13T06:59:00;95737.66;;;-0.49;nan
23166;BME280;11751;42.700;24.170;2023-02-13T07:01:26;95746.19;;;-0.34;nan
23166;BME280;11751;42.700;24.170;2023-02-13T07:03:52;95756.81;;;-0.24;nan
23166;BME280;11751;42.700;24.170;2023-02-13T07:06:18;95751.03;;;-0.17;nan
23166;BME280;11751;42.700;24.170;2023-02-13T07:08:44;95753.09;;;-0.08;nan
23166;BME280;11751;42.700;24.170;2023-02-13T07:11:16;95762.97;;;0.01;nan
23166;BME280;11751;42.700;24.170;2023-02-13T07:13:42;95761.53;;;0.18;nan
23166;BME280;11751;42.700;24.170;2023-02-13T07:16:07;95761.16;;;0.29;nan
23166;BME280;11751;42.700;24.170;2023-02-13T07:18:33;95762.66;;;0.30;nan
23166;BME280;11751;42.700;24.170;2023-02-13T07:20:58;95759.75;;;0.24;nan
23166;BME280;11751;42.700;24.170;2023-02-13T07:23:24;95758.91;;;0.45;nan
23166;BME280;11751;42.700;24.170;2023-02-13T07:25:49;95754.41;;;0.60;nan
23166;BME280;11751;42.700;24.170;2023-02-13T07:28:14;95751.78;;;0.57;nan
23166;BME280;11751;42.700;24.170;2023-02-13T07:30:40;95753.22;;;0.70;nan
23166;BME280;11751;42.700;24.170;2023-02-13T07:33:05;95750.19;;;0.77;nan
23166;BME280;11751;42.700;24.170;2023-02-13T07:35:31;95758.50;;;0.95;nan
23166;BME280;11751;42.700;24.170;2023-02-13T07:37:57;95752.72;;;1.02;nan
23166;BME280;11751;42.700;24.170;2023-02-13T07:40:23;95749.53;;;1.21;nan
23166;BME280;11751;42.700;24.170;2023-02-13T07:42:48;95746.31;;;1.23;nan
23166;BME280;11751;42.700;24.170;2023-02-13T07:45:14;95748.19;;;1.35;nan
23166;BME280;11751;42.700;24.170;2023-02-13T07:47:40;95741.44;;;1.45;nan
23166;BME280;11751;42.700;24.170;2023-02-13T07:50:07;95745.41;;;1.26;nan
23166;BME280;11751;42.700;24.170;2023-02-13T07:52:33;95741.13;;;1.34;nan
23166;BME280;11751;42.700;24.170;2023-02-13T07:54:58;95739.28;;;1.22;nan
23166;BME280;11751;42.700;24.170;2023-02-13T07:57:24;95750.31;;;1.22;nan
23166;BME280;11751;42.700;24.170;2023-02-13T07:59:49;95750.63;;;1.33;nan
23166;BME280;11751;42.700;24.170;2023-02-13T08:02:15;95750.34;;;1.40;nan
23166;BME280;11751;42.700;24.170;2023-02-13T08:04:41;95744.81;;;1.31;nan
23166;BME280;11751;42.700;24.170;2023-02-13T08:07:16;95740.53;;;1.48;nan
23166;BME280;11751;42.700;24.170;2023-02-13T08:09:45;95739.16;;;1.61;nan
23166;BME280;11751;42.700;24.170;2023-02-13T08:12:31;95745.44;;;1.62;nan
23166;BME280;11751;42.700;24.170;2023-02-13T08:14:59;95751.00;;;1.70;nan
23166;BME280;11751;42.700;24.170;2023-02-13T08:17:24;95754.34;;;1.92;nan
23166;BME280;11751;42.700;24.170;2023-02-13T08:19:49;95746.81;;;2.02;nan
23166;BME280;11751;42.700;24.170;2023-02-13T08:22:15;95744.22;;;1.89;nan
23166;BME280;11751;42.700;24.170;2023-02-13T08:24:40;95744.25;;;1.80;nan
23166;BME280;11751;42.700;24.170;2023-02-13T08:27:06;95746.19;;;1.98;nan
23166;BME280;11751;42.700;24.170;2023-02-13T08:29:31;95743.25;;;2.28;nan
23166;BME280;11751;42.700;24.170;2023-02-13T08:31:58;95739.84;;;2.33;nan
23166;BME280;11751;42.700;24.170;2023-02-13T08:34:24;95750.53;;;2.58;nan
23166;BME280;11751;42.700;24.170;2023-02-13T08:36:49;95745.31;;;2.51;nan
23166;BME280;11751;42.700;24.170;2023-02-13T08:39:14;95739.50;;;2.40;nan
23166;BME280;11751;42.700;24.170;2023-02-13T08:41:40;95734.66;;;2.26;nan
23166;BME280;11751;42.700;24.170;2023-02-13T08:44:06;95739.44;;;2.67;nan
23166;BME280;11751;42.700;24.170;2023-02-13T08:46:31;95735.41;;;2.77;nan
23166;BME280;11751;42.700;24.170;2023-02-13T08:48:57;95724.69;;;2.61;nan
23166;BME280;11751;42.700;24.170;2023-02-13T08:51:22;95731.47;;;2.60;nan
23166;BME280;11751;42.700;24.170;2023-02-13T08:53:47;95733.16;;;2.07;nan
23166;BME280;11751;42.700;24.170;2023-02-13T08:56:13;95728.22;;;2.20;nan
23166;BME280;11751;42.700;24.170;2023-02-13T08:58:38;95734.97;;;2.28;nan
23166;BME280;11751;42.700;24.170;2023-02-13T09:01:07;95733.22;;;2.40;nan
23166;BME280;11751;42.700;24.170;2023-02-13T09:03:33;95728.16;;;2.47;nan
23166;BME280;11751;42.700;24.170;2023-02-13T09:06:01;95721.84;;;2.47;nan
23166;BME280;11751;42.700;24.170;2023-02-13T09:08:27;95721.41;;;2.39;nan
23166;BME280;11751;42.700;24.170;2023-02-13T09:11:00;95727.31;;;2.64;nan
23166;BME280;11751;42.700;24.170;2023-02-13T09:13:29;95723.16;;;2.60;nan
23166;BME280;11751;42.700;24.170;2023-02-13T09:15:58;95725.63;;;2.67;nan
23166;BME280;11751;42.700;24.170;2023-02-13T09:18:25;95724.34;;;2.77;nan
23166;BME280;11751;42.700;24.170;2023-02-13T09:20:59;95725.28;;;2.74;nan
23166;BME280;11751;42.700;24.170;2023-02-13T09:23:25;95728.34;;;2.76;nan
23166;BME280;11751;42.700;24.170;2023-02-13T09:25:51;95718.50;;;2.75;nan
23166;BME280;11751;42.700;24.170;2023-02-13T09:28:22;95726.38;;;2.17;nan
23166;BME280;11751;42.700;24.170;2023-02-13T09:30:48;95722.06;;;2.66;nan
23166;BME280;11751;42.700;24.170;2023-02-13T09:33:16;95721.03;;;2.96;nan
23166;BME280;11751;42.700;24.170;2023-02-13T09:35:44;95718.03;;;3.09;nan
23166;BME280;11751;42.700;24.170;2023-02-13T09:38:09;95709.75;;;3.32;nan
23166;BME280;11751;42.700;24.170;2023-02-13T09:40:53;95706.25;;;3.23;nan
23166;BME280;11751;42.700;24.170;2023-02-13T09:43:32;95706.03;;;3.35;nan
23166;BME280;11751;42.700;24.170;2023-02-13T09:46:14;95702.94;;;3.33;nan
23166;BME280;11751;42.700;24.170;2023-02-13T09:48:47;95707.16;;;3.52;nan
23166;BME280;11751;42.700;24.170;2023-02-13T09:51:18;95691.59;;;3.54;nan
23166;BME280;11751;42.700;24.170;2023-02-13T09:54:04;95685.41;;;3.13;nan
23166;BME280;11751;42.700;24.170;2023-02-13T10:16:34;95665.19;;;4.11;nan
23166;BME280;11751;42.700;24.170;2023-02-13T10:21:57;95646.09;;;4.13;nan
23166;BME280;11751;42.700;24.170;2023-02-13T10:24:37;95647.44;;;4.03;nan
23166;BME280;11751;42.700;24.170;2023-02-13T10:29:47;95627.91;;;4.41;nan
23166;BME280;11751;42.700;24.170;2023-02-13T10:35:46;95624.06;;;4.53;nan
23166;BME280;11751;42.700;24.170;2023-02-13T10:38:20;95618.88;;;4.46;nan
23166;BME280;11751;42.700;24.170;2023-02-13T10:41:09;95621.56;;;4.55;nan
23166;BME280;11751;42.700;24.170;2023-02-13T11:02:51;95590.84;;;5.32;nan
23166;BME280;11751;42.700;24.170;2023-02-13T11:05:23;95589.69;;;5.44;nan
23166;BME280;11751;42.700;24.170;2023-02-13T11:07:49;95588.78;;;5.53;nan
23166;BME280;11751;42.700;24.170;2023-02-13T11:10:17;95583.84;;;5.62;nan
23166;BME280;11751;42.700;24.170;2023-02-13T11:12:43;95584.81;;;5.79;nan
23166;BME280;11751;42.700;24.170;2023-02-13T11:17:46;95578.16;;;5.96;nan
23166;BME280;11751;42.700;24.170;2023-02-13T11:20:26;95576.94;;;6.03;nan
23166;BME280;11751;42.700;24.170;2023-02-13T11:22:52;95564.63;;;5.84;nan
23166;BME280;11751;42.700;24.170;2023-02-13T11:25:20;95568.34;;;6.01;nan
23166;BME280;11751;42.700;24.170;2023-02-13T11:27:49;95566.91;;;6.11;nan
23166;BME280;11751;42.700;24.170;2023-02-13T11:30:36;95568.75;;;6.19;nan
23166;BME280;11751;42.700;24.170;2023-02-13T11:33:21;95555.25;;;6.38;nan
23166;BME280;11751;42.700;24.170;2023-02-13T11:35:47;95548.63;;;6.30;nan
23166;BME280;11751;42.700;24.170;2023-02-13T11:40:43;95543.34;;;6.37;nan
23166;BME280;11751;42.700;24.170;2023-02-13T11:43:18;95536.84;;;6.46;nan
23166;BME280;11751;42.700;24.170;2023-02-13T11:45:45;95529.66;;;6.34;nan
23166;BME280;11751;42.700;24.170;2023-02-13T11:48:20;95536.16;;;6.62;nan
23166;BME280;11751;42.700;24.170;2023-02-13T11:50:51;95524.81;;;6.71;nan
23166;BME280;11751;42.700;24.170;2023-02-13T11:53:26;95524.38;;;6.78;nan
23166;BME280;11751;42.700;24.170;2023-02-13T11:56:11;95520.28;;;6.68;nan
23166;BME280;11751;42.700;24.170;2023-02-13T11:58:38;95516.03;;;6.78;nan
23166;BME280;11751;42.700;24.170;2023-02-13T12:06:26;95502.31;;;6.27;nan
23166;BME280;11751;42.700;24.170;2023-02-13T12:08:53;95504.06;;;6.24;nan
23166;BME280;11751;42.700;24.170;2023-02-13T12:13:54;95485.28;;;6.56;nan
23166;BME280;11751;42.700;24.170;2023-02-13T12:16:29;95489.66;;;6.68;nan
23166;BME280;11751;42.700;24.170;2023-02-13T12:18:57;95480.97;;;6.55;nan
23166;BME280;11751;42.700;24.170;2023-02-13T12:21:49;95488.97;;;6.83;nan
23166;BME280;11751;42.700;24.170;2023-02-13T12:37:33;95470.28;;;6.42;nan
23166;BME280;11751;42.700;24.170;2023-02-13T12:45:55;95465.16;;;6.82;nan
23166;BME280;11751;42.700;24.170;2023-02-13T12:57:05;95456.13;;;6.98;nan
23166;BME280;11751;42.700;24.170;2023-02-13T13:16:03;95428.22;;;6.77;nan
23166;BME280;11751;42.700;24.170;2023-02-13T13:18:57;95426.22;;;6.93;nan
23166;BME280;11751;42.700;24.170;2023-02-13T13:21:33;95427.31;;;7.12;nan
23166;BME280;11751;42.700;24.170;2023-02-13T13:24:28;95428.28;;;6.93;nan
23166;BME280;11751;42.700;24.170;2023-02-13T13:26:59;95422.22;;;7.05;nan
23166;BME280;11751;42.700;24.170;2023-02-13T13:29:31;95409.28;;;7.02;nan
23166;BME280;11751;42.700;24.170;2023-02-13T13:32:05;95413.94;;;7.38;nan
23166;BME280;11751;42.700;24.170;2023-02-13T13:34:33;95419.00;;;7.34;nan
23166;BME280;11751;42.700;24.170;2023-02-13T13:37:12;95408.84;;;7.09;nan
23166;BME280;11751;42.700;24.170;2023-02-13T13:39:51;95406.31;;;7.28;nan
23166;BME280;11751;42.700;24.170;2023-02-13T13:45:28;95403.53;;;7.33;nan
23166;BME280;11751;42.700;24.170;2023-02-13T13:51:05;95403.03;;;7.40;nan
23166;BME280;11751;42.700;24.170;2023-02-13T13:53:31;95393.16;;;7.34;nan
23166;BME280;11751;42.700;24.170;2023-02-13T13:55:58;95398.44;;;7.10;nan
23166;BME280;11751;42.700;24.170;2023-02-13T14:03:42;95393.41;;;7.36;nan
23166;BME280;11751;42.700;24.170;2023-02-13T14:09:41;95383.28;;;7.60;nan
23166;BME280;11751;42.700;24.170;2023-02-13T14:14:52;95392.91;;;7.37;nan
23166;BME280;11751;42.700;24.170;2023-02-13T14:20:37;95376.69;;;7.52;nan
23166;BME280;11751;42.700;24.170;2023-02-13T14:23:16;95370.13;;;7.44;nan
23166;BME280;11751;42.700;24.170;2023-02-13T14:25:43;95370.34;;;7.24;nan
23166;BME280;11751;42.700;24.170;2023-02-13T14:30:43;95369.59;;;7.51;nan
23166;BME280;11751;42.700;24.170;2023-02-13T14:33:23;95368.06;;;7.39;nan
23166;BME280;11751;42.700;24.170;2023-02-13T14:36:03;95368.59;;;7.43;nan
23166;BME280;11751;42.700;24.170;2023-02-13T14:38:30;95364.03;;;7.51;nan
23166;BME280;11751;42.700;24.170;2023-02-13T14:40:56;95357.16;;;7.25;nan
23166;BME280;11751;42.700;24.170;2023-02-13T14:46:43;95363.78;;;7.33;nan
23166;BME280;11751;42.700;24.170;2023-02-13T14:49:11;95362.47;;;7.06;nan
23166;BME280;11751;42.700;24.170;2023-02-13T14:51:43;95359.94;;;7.03;nan
23166;BME280;11751;42.700;24.170;2023-02-13T14:54:25;95359.16;;;6.97;nan
23166;BME280;11751;42.700;24.170;2023-02-13T14:56:56;95367.78;;;6.99;nan
23166;BME280;11751;42.700;24.170;2023-02-13T14:59:28;95373.06;;;6.86;nan
23166;BME280;11751;42.700;24.170;2023-02-13T15:01:59;95369.25;;;6.83;nan
23166;BME280;11751;42.700;24.170;2023-02-13T15:04:33;95365.69;;;6.72;nan
23166;BME280;11751;42.700;24.170;2023-02-13T15:07:00;95373.28;;;6.77;nan
23166;BME280;11751;42.700;24.170;2023-02-13T15:09:35;95367.72;;;6.77;nan
23166;BME280;11751;42.700;24.170;2023-02-13T15:12:03;95381.59;;;6.61;nan
23166;BME280;11751;42.700;24.170;2023-02-13T15:14:47;95374.19;;;6.47;nan
23166;BME280;11751;42.700;24.170;2023-02-13T15:17:27;95365.47;;;6.23;nan
23166;BME280;11751;42.700;24.170;2023-02-13T15:20:05;95366.28;;;6.29;nan
23166;BME280;11751;42.700;24.170;2023-02-13T15:22:39;95369.06;;;6.29;nan
23166;BME280;11751;42.700;24.170;2023-02-13T15:25:19;95369.34;;;6.31;nan
23166;BME280;11751;42.700;24.170;2023-02-13T15:27:51;95359.88;;;6.17;nan
23166;BME280;11751;42.700;24.170;2023-02-13T15:30:23;95368.03;;;6.21;nan
23166;BME280;11751;42.700;24.170;2023-02-13T15:33:01;95362.63;;;6.06;nan
23166;BME280;11751;42.700;24.170;2023-02-13T15:35:31;95371.16;;;5.92;nan
23166;BME280;11751;42.700;24.170;2023-02-13T15:37:58;95362.81;;;5.92;nan
23166;BME280;11751;42.700;24.170;2023-02-13T15:40:30;95365.28;;;5.85;nan
23166;BME280;11751;42.700;24.170;2023-02-13T15:42:57;95362.47;;;5.79;nan
23166;BME280;11751;42.700;24.170;2023-02-13T15:45:25;95372.81;;;5.79;nan
23166;BME280;11751;42.700;24.170;2023-02-13T15:47:52;95364.56;;;5.59;nan
23166;BME280;11751;42.700;24.170;2023-02-13T15:50:34;95368.56;;;5.52;nan
23166;BME280;11751;42.700;24.170;2023-02-13T15:53:03;95365.16;;;5.37;nan
23166;BME280;11751;42.700;24.170;2023-02-13T15:55:32;95366.31;;;5.25;nan
23166;BME280;11751;42.700;24.170;2023-02-13T15:58:00;95369.53;;;5.18;nan
23166;BME280;11751;42.700;24.170;2023-02-13T16:00:29;95373.41;;;5.01;nan
23166;BME280;11751;42.700;24.170;2023-02-13T16:02:57;95368.91;;;4.78;nan
23166;BME280;11751;42.700;24.170;2023-02-13T16:05:24;95374.13;;;4.71;nan
23166;BME280;11751;42.700;24.170;2023-02-13T16:07:56;95379.28;;;4.38;nan
23166;BME280;11751;42.700;24.170;2023-02-13T16:10:35;95370.97;;;4.38;nan
23166;BME280;11751;42.700;24.170;2023-02-13T16:13:15;95372.63;;;4.30;nan
23166;BME280;11751;42.700;24.170;2023-02-13T16:15:42;95373.97;;;4.15;nan
23166;BME280;11751;42.700;24.170;2023-02-13T16:18:17;95372.78;;;4.01;nan
23166;BME280;11751;42.700;24.170;2023-02-13T16:20:43;95379.47;;;3.95;nan
23166;BME280;11751;42.700;24.170;2023-02-13T16:23:19;95389.25;;;3.90;nan
23166;BME280;11751;42.700;24.170;2023-02-13T16:25:46;95381.06;;;3.81;nan